KCVN/CVN METAR and TAF weather

Enter ICAO airport designator
Station Type Date Time Source
KCVN METAR 2019/10/21 01:56 UTC NOAA

KCVN 210156Z AUTO 30013KT 10SM CLR 13/M12 A2987 RMK AO2 PK WND 29027/0100 SLP098 T01331122


Station Type Date Time Source
KCVN Decoded METAR 2019/10/21 01:56 UTC NOAA

Clovis, Clovis Municipal Airport, NM, United States (KCVN) 34-26N 103-05W
Oct 20, 2019 - 09:56 PM EDT / 2019.10.21 0156 UTC
Wind: from the WNW (300 degrees) at 15 MPH (13 KT):0
Visibility: 10 mile(s):0
Sky conditions: clear
Temperature: 55.9 F (13.3 C)
Dew Point: 10.0 F (-12.2 C)
Relative Humidity: 15%
Pressure (altimeter): 29.87 in. Hg (1011 hPa)
ob: KCVN 210156Z AUTO 30013KT 10SM CLR 13/M12 A2987 RMK AO2 PK WND 29027/0100 SLP098 T01331122
cycle: 2

Station Type Date Time Source
KCVN TAF UTC NOAA

Error!

Example: see airport list